createdAt,value
2019-05-11T00:01:04.568Z,99365.29
2019-05-11T00:03:34.249Z,99363.94
2019-05-11T00:06:03.922Z,99370.42
2019-05-11T00:08:33.595Z,99369.28
2019-05-11T00:11:03.252Z,99368.58
2019-05-11T00:13:33.012Z,99372.12
2019-05-11T00:16:02.719Z,99373.65
2019-05-11T00:18:32.380Z,99383.32
2019-05-11T00:21:02.055Z,99384.02
2019-05-11T00:23:31.864Z,99378.30
2019-05-11T00:26:01.705Z,99380.05
2019-05-11T00:28:31.371Z,99386.67
2019-05-11T00:31:01.036Z,99388.34
2019-05-11T00:33:30.687Z,99381.67
2019-05-11T00:36:00.587Z,99388.81
2019-05-11T00:38:30.259Z,99397.87
2019-05-11T00:40:59.969Z,99393.39
2019-05-11T00:43:29.628Z,99393.17
2019-05-11T00:45:59.293Z,99397.97
2019-05-11T00:48:28.970Z,99398.80
2019-05-11T00:50:58.662Z,99405.67
2019-05-11T00:53:28.328Z,99396.77
2019-05-11T00:55:58.019Z,99399.89
2019-05-11T00:58:27.678Z,99399.80
2019-05-11T01:00:57.372Z,99393.89
2019-05-11T01:03:27.057Z,99399.41
2019-05-11T01:05:56.750Z,99399.55
2019-05-11T01:08:26.405Z,99401.63
2019-05-11T01:10:56.203Z,99403.39
2019-05-11T01:13:25.947Z,99400.97
2019-05-11T01:15:55.672Z,99404.09
2019-05-11T01:18:25.341Z,99407.28
2019-05-11T01:20:55.016Z,99413.55
2019-05-11T01:23:24.718Z,99411.53
2019-05-11T01:25:54.399Z,99411.39
2019-05-11T01:28:24.074Z,99408.79
2019-05-11T01:30:53.774Z,99411.88
2019-05-11T01:33:23.441Z,99418.95
2019-05-11T01:35:53.133Z,99416.39
2019-05-11T01:38:22.776Z,99412.54
2019-05-11T01:40:58.577Z,99414.89
2019-05-11T01:43:23.915Z,99417.91
2019-05-11T01:45:53.568Z,99421.70
2019-05-11T01:48:23.287Z,99411.95
2019-05-11T01:50:52.964Z,99417.38
2019-05-11T01:53:22.681Z,99419.52
2019-05-11T01:55:52.344Z,99422.45
2019-05-11T01:58:22.032Z,99415.80
2019-05-11T02:00:51.708Z,99416.42
2019-05-11T02:03:21.410Z,99427.86
2019-05-11T02:05:51.760Z,99428.07
2019-05-11T02:08:21.631Z,99426.92
2019-05-11T02:10:51.334Z,99433.37
2019-05-11T02:13:21.011Z,99433.91
2019-05-11T02:15:50.664Z,99433.28
2019-05-11T02:18:20.355Z,99432.88
2019-05-11T02:20:50.052Z,99430.92
2019-05-11T02:23:19.769Z,99435.09
2019-05-11T02:25:49.414Z,99440.00
2019-05-11T02:28:19.083Z,99438.53
2019-05-11T02:30:48.756Z,99439.55
2019-05-11T02:33:18.454Z,99441.02
2019-05-11T02:35:48.132Z,99442.66
2019-05-11T02:38:17.788Z,99446.39
2019-05-11T02:40:47.447Z,99457.91
2019-05-11T02:43:17.142Z,99455.33
2019-05-11T02:45:46.815Z,99458.50
2019-05-11T02:48:16.477Z,99458.78
2019-05-11T02:50:46.126Z,99464.81
2019-05-11T02:53:15.792Z,99466.88
2019-05-11T02:55:45.465Z,99469.17
2019-05-11T02:58:15.158Z,99473.30
2019-05-11T03:00:45.614Z,99476.72
2019-05-11T03:03:15.301Z,99478.46
2019-05-11T03:05:44.973Z,99480.88
2019-05-11T03:08:14.669Z,99478.78
2019-05-11T03:10:44.345Z,99485.64
2019-05-11T03:13:14.016Z,99487.12
2019-05-11T03:15:43.707Z,99480.77
2019-05-11T03:18:13.369Z,99486.84
2019-05-11T03:20:43.051Z,99492.28
2019-05-11T03:23:12.732Z,99493.33
2019-05-11T03:25:42.421Z,99499.59
2019-05-11T03:28:12.102Z,99508.93
2019-05-11T03:30:41.798Z,99504.16
2019-05-11T03:33:11.488Z,99512.91
2019-05-11T03:35:41.334Z,99507.50
2019-05-11T03:38:11.013Z,99512.39
2019-05-11T03:40:40.686Z,99513.33
2019-05-11T03:43:10.337Z,99525.81
2019-05-11T03:45:40.063Z,99522.90
2019-05-11T03:48:09.729Z,99539.74
2019-05-11T03:50:39.421Z,99535.61
2019-05-11T03:53:09.126Z,99545.26
2019-05-11T03:55:38.813Z,99540.91
2019-05-11T03:58:08.619Z,99539.95
2019-05-11T04:00:38.433Z,99538.98
2019-05-11T04:03:08.081Z,99540.11
2019-05-11T04:05:37.576Z,99541.91
2019-05-11T04:08:07.094Z,99541.75
2019-05-11T04:10:36.518Z,99546.17
2019-05-11T04:13:05.926Z,99546.39
2019-05-11T04:15:35.342Z,99544.84
2019-05-11T04:18:04.761Z,99540.30
2019-05-11T04:20:34.228Z,99542.06
2019-05-11T04:23:03.643Z,99541.80
2019-05-11T04:25:33.057Z,99549.48
2019-05-11T04:28:02.492Z,99557.23
2019-05-11T04:30:31.917Z,99567.28
2019-05-11T04:33:01.369Z,99568.53
2019-05-11T04:35:30.787Z,99562.14
2019-05-11T04:38:00.226Z,99570.27
2019-05-11T04:40:29.661Z,99573.67
2019-05-11T04:42:59.092Z,99576.24
2019-05-11T04:45:28.534Z,99580.33
2019-05-11T04:47:57.949Z,99581.28
2019-05-11T04:50:27.413Z,99590.97
2019-05-11T04:52:56.895Z,99587.17
2019-05-11T04:55:26.383Z,99590.03
2019-05-11T04:57:55.819Z,99593.30
2019-05-11T05:00:25.350Z,99600.71
2019-05-11T05:02:54.765Z,99603.80
2019-05-11T05:05:24.182Z,99604.98
2019-05-11T05:08:07.403Z,99604.81
2019-05-11T05:10:24.950Z,99611.00
2019-05-11T05:13:08.516Z,99607.32
2019-05-11T05:15:25.493Z,99615.16
2019-05-11T05:17:54.926Z,99607.89
2019-05-11T05:20:24.426Z,99615.83
2019-05-11T05:22:53.840Z,99611.43
2019-05-11T05:25:23.258Z,99613.00
2019-05-11T05:27:52.681Z,99624.16
2019-05-11T05:30:22.127Z,99612.17
2019-05-11T05:32:51.561Z,99614.58
2019-05-11T05:35:20.993Z,99610.47
2019-05-11T05:37:50.415Z,99614.34
2019-05-11T05:40:19.863Z,99621.35
2019-05-11T05:42:49.396Z,99621.66
2019-05-11T05:45:18.898Z,99617.45
2019-05-11T05:47:48.413Z,99618.34
2019-05-11T05:50:17.839Z,99623.80
2019-05-11T05:52:47.259Z,99623.19
2019-05-11T05:55:16.694Z,99623.70
2019-05-11T05:57:46.133Z,99626.99
2019-05-11T06:00:15.570Z,99628.25
2019-05-11T06:02:45.002Z,99634.80
2019-05-11T06:05:14.512Z,99633.21
2019-05-11T06:07:43.925Z,99637.41
2019-05-11T06:10:13.413Z,99636.09
2019-05-11T06:12:42.837Z,99644.38
2019-05-11T06:15:12.246Z,99645.58
2019-05-11T06:17:41.713Z,99646.80
2019-05-11T06:20:11.797Z,99643.39
2019-05-11T06:22:41.288Z,99649.93
2019-05-11T06:25:10.899Z,99645.38
2019-05-11T06:27:40.329Z,99646.25
2019-05-11T06:30:09.892Z,99650.00
2019-05-11T06:32:39.316Z,99645.33
2019-05-11T06:35:08.764Z,99643.30
2019-05-11T06:37:38.184Z,99643.29
2019-05-11T06:40:07.793Z,99651.40
2019-05-11T06:42:37.318Z,99641.59
2019-05-11T06:45:06.854Z,99640.97
2019-05-11T06:47:36.270Z,99642.16
2019-05-11T06:50:06.313Z,99637.54
2019-05-11T06:52:35.773Z,99636.28
2019-05-11T06:55:05.663Z,99636.22
2019-05-11T06:57:35.082Z,99637.52
2019-05-11T07:00:04.525Z,99641.19
2019-05-11T07:02:33.947Z,99635.89
2019-05-11T07:05:03.487Z,99648.13
2019-05-11T07:07:46.479Z,99647.04
2019-05-11T07:10:04.295Z,99644.72
2019-05-11T07:12:33.705Z,99642.73
2019-05-11T07:15:03.187Z,99645.27
2019-05-11T07:17:32.619Z,99641.87
2019-05-11T07:20:02.091Z,99638.59
2019-05-11T07:22:31.487Z,99644.59
2019-05-11T07:25:00.925Z,99646.01
2019-05-11T07:27:31.446Z,99639.77
2019-05-11T07:30:00.883Z,99649.36
2019-05-11T07:32:30.300Z,99655.66
2019-05-11T07:34:59.727Z,99650.47
2019-05-11T07:37:29.148Z,99655.41
2019-05-11T07:39:58.607Z,99654.66
2019-05-11T07:42:28.750Z,99654.38
2019-05-11T07:44:58.420Z,99654.66
2019-05-11T07:47:28.002Z,99652.90
2019-05-11T07:49:58.023Z,99654.43
2019-05-11T07:52:28.735Z,99657.89
2019-05-11T07:54:58.429Z,99656.95
2019-05-11T07:57:28.511Z,99651.61
2019-05-11T07:59:58.243Z,99666.32
2019-05-11T08:02:29.262Z,99662.84
2019-05-11T08:04:59.120Z,99661.11
2019-05-11T08:07:28.732Z,99670.66
2019-05-11T08:09:58.826Z,99674.42
2019-05-11T08:12:28.717Z,99669.61
2019-05-11T08:15:08.635Z,99669.06
2019-05-11T08:17:29.599Z,99665.83
2019-05-11T08:19:59.082Z,99672.23
2019-05-11T08:22:28.636Z,99681.15
2019-05-11T08:24:58.995Z,99677.61
2019-05-11T08:27:28.709Z,99684.44
2019-05-11T08:29:58.334Z,99675.91
2019-05-11T08:32:28.662Z,99676.81
2019-05-11T08:34:58.401Z,99681.69
2019-05-11T08:37:28.518Z,99678.55
2019-05-11T08:39:58.644Z,99674.48
2019-05-11T08:42:29.049Z,99668.34
2019-05-11T08:45:14.823Z,99671.70
2019-05-11T08:47:29.750Z,99678.57
2019-05-11T08:49:59.211Z,99665.94
2019-05-11T08:52:28.720Z,99666.47
2019-05-11T08:54:58.291Z,99658.50
2019-05-11T08:57:28.549Z,99668.41
2019-05-11T08:59:58.219Z,99664.02
2019-05-11T09:02:27.983Z,99667.03
2019-05-11T09:04:58.894Z,99672.27
2019-05-11T09:07:28.552Z,99672.55
2019-05-11T09:09:58.704Z,99666.23
2019-05-11T09:12:28.935Z,99670.08
2019-05-11T09:14:58.619Z,99672.25
2019-05-11T09:17:28.897Z,99669.52
2019-05-11T09:19:58.673Z,99668.97
2019-05-11T09:22:28.521Z,99670.34
2019-05-11T09:24:58.371Z,99658.26
2019-05-11T09:27:28.650Z,99660.44
2019-05-11T09:29:58.883Z,99669.53
2019-05-11T09:32:28.759Z,99663.72
2019-05-11T09:34:58.209Z,99662.87
2019-05-11T09:37:27.923Z,99671.13
2019-05-11T09:39:58.378Z,99666.75
2019-05-11T09:42:28.669Z,99662.30
2019-05-11T09:44:58.286Z,99665.17
2019-05-11T09:47:28.102Z,99660.93
2019-05-11T09:49:59.958Z,99664.38
2019-05-11T09:52:32.617Z,99665.05
2019-05-11T09:55:02.283Z,99657.51
2019-05-11T09:57:31.894Z,99668.20
2019-05-11T10:00:01.382Z,99660.98
2019-05-11T10:02:30.895Z,99669.55
2019-05-11T10:05:00.535Z,99667.58
2019-05-11T10:07:32.472Z,99669.62
2019-05-11T10:10:01.289Z,99666.92
2019-05-11T10:12:30.881Z,99661.55
2019-05-11T10:15:00.416Z,99660.05
2019-05-11T10:17:29.925Z,99660.98
2019-05-11T10:19:59.362Z,99668.08
2019-05-11T10:22:28.778Z,99662.81
2019-05-11T10:24:58.410Z,99658.70
2019-05-11T10:27:28.075Z,99658.23
2019-05-11T10:29:58.980Z,99655.72
2019-05-11T10:32:28.841Z,99661.05
2019-05-11T10:34:58.530Z,99664.23
2019-05-11T10:37:28.362Z,99659.43
2019-05-11T10:39:57.969Z,99661.69
2019-05-11T10:42:28.329Z,99649.53
2019-05-11T10:44:58.343Z,99658.23
2019-05-11T10:47:28.040Z,99646.72
2019-05-11T10:49:57.983Z,99658.99
2019-05-11T10:52:28.522Z,99651.83
2019-05-11T10:54:58.724Z,99654.41
2019-05-11T10:57:28.506Z,99647.64
2019-05-11T10:59:58.162Z,99641.60
2019-05-11T11:02:28.040Z,99646.79
2019-05-11T11:04:58.874Z,99648.20
2019-05-11T11:07:29.013Z,99653.17
2019-05-11T11:09:58.571Z,99647.18
2019-05-11T11:12:28.188Z,99639.77
2019-05-11T11:14:58.731Z,99639.77
2019-05-11T11:17:28.862Z,99638.83
2019-05-11T11:19:58.383Z,99633.83
2019-05-11T11:22:39.014Z,99637.38
2019-05-11T11:24:59.359Z,99637.38
2019-05-11T11:27:29.244Z,99630.47
2019-05-11T11:29:58.928Z,99633.77
2019-05-11T11:32:28.404Z,99633.73
2019-05-11T11:34:57.973Z,99634.69
2019-05-11T11:37:28.075Z,99625.43
2019-05-11T11:39:58.199Z,99631.19
2019-05-11T11:42:28.310Z,99622.86
2019-05-11T11:44:58.796Z,99616.30
2019-05-11T11:47:28.465Z,99626.08
2019-05-11T11:49:58.495Z,99623.36
2019-05-11T11:52:27.972Z,99628.77
2019-05-11T11:54:58.679Z,99617.95
2019-05-11T11:57:28.450Z,99627.06
2019-05-11T11:59:58.844Z,99619.42
2019-05-11T12:02:28.355Z,99622.50
2019-05-11T12:04:58.333Z,99637.11
2019-05-11T12:07:28.524Z,99619.73
2019-05-11T12:09:58.904Z,99625.66
2019-05-11T12:12:28.403Z,99630.91
2019-05-11T12:14:58.491Z,99629.52
2019-05-11T12:17:28.661Z,99624.52
2019-05-11T12:19:58.701Z,99627.75
2019-05-11T12:22:27.999Z,99628.11
2019-05-11T12:24:58.940Z,99627.06
2019-05-11T12:27:28.873Z,99631.58
2019-05-11T12:29:58.418Z,99623.12
2019-05-11T12:32:42.147Z,99615.88
2019-05-11T12:35:11.797Z,99621.39
2019-05-11T12:37:41.320Z,99614.28
2019-05-11T12:40:10.887Z,99616.16
2019-05-11T12:42:40.449Z,99621.70
2019-05-11T12:45:09.916Z,99620.01
2019-05-11T12:47:39.499Z,99609.06
2019-05-11T12:50:09.059Z,99615.00
2019-05-11T12:52:38.577Z,99609.23
2019-05-11T12:55:08.700Z,99612.34
2019-05-11T12:57:38.812Z,99614.65
2019-05-11T13:00:08.765Z,99618.87
2019-05-11T13:02:38.951Z,99616.73
2019-05-11T13:05:08.837Z,99614.07
2019-05-11T13:07:39.195Z,99613.03
2019-05-11T13:10:09.088Z,99617.50
2019-05-11T13:12:38.756Z,99609.15
2019-05-11T13:15:08.522Z,99615.69
2019-05-11T13:17:40.808Z,99612.00
2019-05-11T13:20:12.786Z,99609.94
2019-05-11T13:22:41.618Z,99615.80
2019-05-11T13:25:11.118Z,99614.29
2019-05-11T13:27:40.583Z,99614.83
2019-05-11T13:30:10.649Z,99613.22
2019-05-11T13:32:40.091Z,99600.17
2019-05-11T13:35:09.495Z,99599.69
2019-05-11T13:37:39.087Z,99598.73
2019-05-11T13:40:08.672Z,99591.86
2019-05-11T13:42:38.723Z,99586.64
2019-05-11T13:45:08.637Z,99595.53
2019-05-11T13:47:51.585Z,99590.67
2019-05-11T13:50:09.433Z,99591.89
2019-05-11T13:52:39.094Z,99591.26
2019-05-11T13:55:09.040Z,99580.95
2019-05-11T13:57:39.642Z,99580.95
2019-05-11T14:00:09.116Z,99593.92
2019-05-11T14:02:38.668Z,99591.91
2019-05-11T14:05:08.689Z,99595.37
2019-05-11T14:07:38.534Z,99585.64
2019-05-11T14:10:08.344Z,99592.39
2019-05-11T14:12:38.493Z,99591.74
2019-05-11T14:15:08.782Z,99595.52
2019-05-11T14:17:38.297Z,99594.72
2019-05-11T14:20:09.084Z,99585.91
2019-05-11T14:22:38.898Z,99592.95
2019-05-11T14:25:08.369Z,99601.83
2019-05-11T14:30:09.957Z,99598.05
2019-05-11T14:32:21.429Z,99601.88
2019-05-11T14:32:39.424Z,99598.86
2019-05-11T14:35:12.059Z,99592.50
2019-05-11T14:37:40.015Z,99597.16
2019-05-11T14:40:09.453Z,99594.12
2019-05-11T14:42:38.928Z,99599.07
2019-05-11T14:45:08.697Z,99606.21
2019-05-11T14:47:39.063Z,99607.30
2019-05-11T14:50:09.473Z,99595.75
2019-05-11T14:52:39.213Z,99603.97
2019-05-11T14:55:08.757Z,99601.23
2019-05-11T14:57:39.627Z,99608.38
2019-05-11T15:00:10.256Z,99599.55
2019-05-11T15:02:49.860Z,99600.36
2019-05-11T15:05:19.891Z,99600.65
2019-05-11T15:07:52.383Z,99600.88
2019-05-11T15:10:21.537Z,99604.20
2019-05-11T15:12:50.975Z,99598.97
2019-05-11T15:15:20.483Z,99604.77
2019-05-11T15:17:49.887Z,99603.64
2019-05-11T15:20:19.346Z,99601.44
2019-05-11T15:22:49.210Z,99601.94
2019-05-11T15:25:19.518Z,99608.19
2019-05-11T15:27:49.457Z,99606.20
2019-05-11T15:30:18.914Z,99594.59
2019-05-11T15:32:48.583Z,99604.65
2019-05-11T15:35:18.779Z,99603.78
2019-05-11T15:37:48.657Z,99600.70
2019-05-11T15:40:19.296Z,99599.56
2019-05-11T15:42:48.954Z,99605.59
2019-05-11T15:45:18.886Z,99604.50
2019-05-11T15:47:48.991Z,99609.95
2019-05-11T15:50:19.168Z,99611.09
2019-05-11T15:52:49.138Z,99614.33
2019-05-11T15:55:19.206Z,99612.37
2019-05-11T15:57:48.843Z,99618.88
2019-05-11T16:00:19.454Z,99617.48
2019-05-11T16:02:49.290Z,99614.69
2019-05-11T16:05:18.853Z,99618.48
2019-05-11T16:07:49.211Z,99622.81
2019-05-11T16:10:19.334Z,99618.67
2019-05-11T16:12:49.101Z,99620.52
2019-05-11T16:15:19.514Z,99619.88
2019-05-11T16:17:49.653Z,99624.17
2019-05-11T16:20:19.099Z,99627.67
2019-05-11T16:22:48.578Z,99625.66
2019-05-11T16:25:19.736Z,99629.14
2019-05-11T16:27:49.231Z,99632.34
2019-05-11T16:30:21.579Z,99633.06
2019-05-11T16:32:49.901Z,99636.04
2019-05-11T16:35:19.375Z,99634.88
2019-05-11T16:37:48.944Z,99635.05
2019-05-11T16:40:20.837Z,99638.52
2019-05-11T16:42:49.520Z,99641.99
2019-05-11T16:45:19.471Z,99644.30
2019-05-11T16:47:49.014Z,99647.15
2019-05-11T16:50:18.562Z,99652.77
2019-05-11T16:52:48.565Z,99656.71
2019-05-11T16:55:18.668Z,99657.87
2019-05-11T16:57:48.847Z,99668.06
2019-05-11T17:00:18.534Z,99676.36
2019-05-11T17:02:48.962Z,99671.87
2019-05-11T17:05:26.453Z,99675.78
2019-05-11T17:07:50.225Z,99678.06
2019-05-11T17:10:19.838Z,99684.15
2019-05-11T17:12:49.271Z,99687.99
2019-05-11T17:15:19.086Z,99693.08
2019-05-11T17:17:49.121Z,99695.55
2019-05-11T17:20:19.162Z,99696.64
2019-05-11T17:22:48.719Z,99698.30
2019-05-11T17:25:19.166Z,99704.74
2019-05-11T17:27:48.973Z,99706.92
2019-05-11T17:30:19.589Z,99710.31
2019-05-11T17:32:49.135Z,99716.52
2019-05-11T17:35:18.704Z,99723.05
2019-05-11T17:37:48.577Z,99720.23
2019-05-11T17:40:20.514Z,99724.52
2019-05-11T17:42:48.191Z,99733.18
2019-05-11T17:45:19.006Z,99731.17
2019-05-11T17:47:47.105Z,99739.91
2019-05-11T17:50:18.896Z,99739.20
2019-05-11T17:52:48.062Z,99742.55
2019-05-11T17:55:18.361Z,99749.81
2019-05-11T17:57:49.188Z,99753.55
2019-05-11T18:00:20.156Z,99753.69
2019-05-11T18:02:49.832Z,99760.34
2019-05-11T18:05:19.230Z,99759.89
2019-05-11T18:07:48.660Z,99764.23
2019-05-11T18:10:18.447Z,99766.79
2019-05-11T18:12:48.835Z,99773.87
2019-05-11T18:15:18.911Z,99774.89
2019-05-11T18:17:49.056Z,99779.52
2019-05-11T18:20:21.922Z,99778.34
2019-05-11T18:22:50.406Z,99781.11
2019-05-11T18:25:19.809Z,99783.68
2019-05-11T18:27:49.228Z,99786.66
2019-05-11T18:30:18.744Z,99784.62
2019-05-11T18:32:48.984Z,99778.09
2019-05-11T18:35:19.417Z,99776.36
2019-05-11T18:37:49.320Z,99773.28
2019-05-11T18:40:19.061Z,99775.61
2019-05-11T18:42:49.078Z,99779.72
2019-05-11T18:45:19.220Z,99781.94
2019-05-11T18:47:49.294Z,99786.77
2019-05-11T18:50:29.871Z,99785.72
2019-05-11T18:52:50.012Z,99792.17
2019-05-11T18:55:19.567Z,99790.95
2019-05-11T18:57:49.438Z,99794.48
2019-05-11T19:00:18.988Z,99789.91
2019-05-11T19:02:49.056Z,99800.53
2019-05-11T19:05:18.279Z,99796.80
2019-05-11T19:07:48.318Z,99793.28
2019-05-11T19:10:17.911Z,99795.56
2019-05-11T19:12:48.784Z,99797.64
2019-05-11T19:15:19.120Z,99797.13
2019-05-11T19:17:49.366Z,99796.09
2019-05-11T19:20:20.665Z,99800.97
2019-05-11T19:22:50.077Z,99802.03
2019-05-11T19:25:19.501Z,99798.70
2019-05-11T19:27:50.766Z,99801.41
2019-05-11T19:30:20.095Z,99798.38
2019-05-11T19:32:49.519Z,99794.41
2019-05-11T19:35:21.109Z,99794.21
2019-05-11T19:37:50.274Z,99797.45
2019-05-11T19:40:19.693Z,99793.59
2019-05-11T19:42:55.690Z,99798.36
2019-05-11T19:45:25.122Z,99797.62
2019-05-11T19:47:54.527Z,99795.55
2019-05-11T19:50:23.983Z,99796.98
2019-05-11T19:52:53.496Z,99798.45
2019-05-11T19:55:22.954Z,99798.14
2019-05-11T19:57:52.385Z,99802.59
2019-05-11T20:00:21.928Z,99811.34
2019-05-11T20:02:51.455Z,99810.20
2019-05-11T20:05:20.881Z,99815.92
2019-05-11T20:07:50.334Z,99817.72
2019-05-11T20:10:19.992Z,99816.05
2019-05-11T20:12:49.468Z,99815.64
2019-05-11T20:15:19.313Z,99818.44
2019-05-11T20:17:49.257Z,99816.56
2019-05-11T20:20:19.119Z,99818.63
2019-05-11T20:22:48.831Z,99826.23
2019-05-11T20:25:19.292Z,99820.70
2019-05-11T20:27:49.384Z,99815.09
2019-05-11T20:30:19.354Z,99819.03
2019-05-11T20:32:49.494Z,99816.84
2019-05-11T20:35:18.957Z,99825.06
2019-05-11T20:37:48.429Z,99821.41
2019-05-11T20:40:18.506Z,99822.09
2019-05-11T20:42:48.700Z,99820.42
2019-05-11T20:45:18.706Z,99818.55
2019-05-11T20:47:49.030Z,99815.01
2019-05-11T20:50:18.960Z,99815.52
2019-05-11T20:52:48.686Z,99811.37
2019-05-11T20:55:18.564Z,99811.06
2019-05-11T20:57:48.458Z,99809.59
2019-05-11T21:00:18.721Z,99806.88
2019-05-11T21:02:48.946Z,99811.25
2019-05-11T21:05:18.784Z,99809.45
2019-05-11T21:07:48.261Z,99809.14
2019-05-11T21:10:17.729Z,99814.15
2019-05-11T21:12:47.148Z,99810.29
2019-05-11T21:15:16.593Z,99815.78
2019-05-11T21:17:48.145Z,99815.37
2019-05-11T21:20:18.268Z,99816.67
2019-05-11T21:22:48.715Z,99819.28
2019-05-11T21:25:18.437Z,99822.36
2019-05-11T21:27:48.649Z,99827.62
2019-05-11T21:30:18.633Z,99824.45
2019-05-11T21:32:48.227Z,99825.97
2019-05-11T21:35:19.279Z,99830.47
2019-05-11T21:37:48.998Z,99830.95
2019-05-11T21:40:18.467Z,99828.73
2019-05-11T21:42:47.898Z,99840.72
2019-05-11T21:45:18.370Z,99839.75
2019-05-11T21:47:49.025Z,99828.08
2019-05-11T21:50:19.243Z,99827.91
2019-05-11T21:52:48.888Z,99821.02
2019-05-11T21:55:18.354Z,99821.21
2019-05-11T21:57:49.812Z,99826.16
2019-05-11T22:00:19.129Z,99825.05
2019-05-11T22:02:48.799Z,99819.59
2019-05-11T22:05:20.848Z,99828.08
2019-05-11T22:07:49.686Z,99829.52
2019-05-11T22:10:19.103Z,99836.38
2019-05-11T22:12:49.146Z,99840.87
2019-05-11T22:15:19.132Z,99846.98
2019-05-11T22:17:48.556Z,99849.48
2019-05-11T22:20:18.531Z,99852.19
2019-05-11T22:22:48.100Z,99852.00
2019-05-11T22:25:18.225Z,99842.36
2019-05-11T22:27:48.865Z,99844.36
2019-05-11T22:30:18.770Z,99841.57
2019-05-11T22:32:48.355Z,99839.08
2019-05-11T22:35:18.422Z,99832.51
2019-05-11T22:37:49.077Z,99835.59
2019-05-11T22:40:18.581Z,99829.95
2019-05-11T22:42:48.012Z,99833.41
2019-05-11T22:45:18.684Z,99835.85
2019-05-11T22:47:48.474Z,99842.03
2019-05-11T22:50:18.819Z,99834.08
2019-05-11T22:52:48.723Z,99832.22
2019-05-11T22:55:18.886Z,99830.22
2019-05-11T22:57:48.869Z,99830.68
2019-05-11T23:00:23.592Z,99829.66
2019-05-11T23:02:52.993Z,99830.08
2019-05-11T23:05:22.458Z,99829.52
2019-05-11T23:07:51.899Z,99828.63
2019-05-11T23:10:21.319Z,99839.66
2019-05-11T23:12:50.737Z,99837.28
2019-05-11T23:15:20.171Z,99833.75
2019-05-11T23:17:49.588Z,99832.41
2019-05-11T23:20:19.009Z,99830.73
2019-05-11T23:22:56.980Z,99827.77
2019-05-11T23:25:19.572Z,99830.03
2019-05-11T23:27:49.183Z,99822.27
2019-05-11T23:30:19.794Z,99826.31
2019-05-11T23:32:49.989Z,99824.22
2019-05-11T23:35:19.456Z,99819.93
2019-05-11T23:37:49.889Z,99820.11
2019-05-11T23:40:19.681Z,99818.32
2019-05-11T23:42:49.412Z,99820.19
2019-05-11T23:45:19.416Z,99826.17
2019-05-11T23:47:49.240Z,99818.27
2019-05-11T23:50:19.767Z,99814.62
2019-05-11T23:53:05.103Z,99816.48
2019-05-11T23:55:20.490Z,99815.50
2019-05-11T23:57:50.008Z,99792.84
